Latest Weather Observations for Tewantin

IDQ60801

Issued at 9:32 am EST Monday 30 March 2015 (issued every 30 minutes, with the page automatically refreshed every 10 minutes)

About weather observations | Map of weather stations | Latest weather observations for QLD | Other Formats
Station Details ID: 040908 Name: TEWANTIN RSL PARK Lat: -26.39 Lon: 153.04 Height: 6.4 m
Data from the previous 72 hours. | See also: Recent months at Tewantin
Date/Time
EST
Temp
°C
App
Temp
°C
Dew
Point
Rel
Hum
%
Delta-T
°C
Wind Press
QNH
hPa
Press
MSL
hPa
Rain
since 9 am
mm
Dir
 
Spd
km/h
Gust
km/h
Spd
kts
Gust
kts
30/09:30am 26.5 26.2 17.3 57 5.7 E 15 24 8 13 1023.5 1023.5 0.0
30/09:00am 25.7 25.7 17.1 59 5.3 E 13 24 7 13 1023.6 1023.6 0.0
30/08:30am 25.3 24.8 17.0 60 5.1 E 15 22 8 12 1023.2 1023.2 0.0
30/08:00am 24.7 25.8 17.9 66 4.2 E 9 15 5 8 1023.3 1023.3 0.0
30/07:30am 24.2 24.7 17.4 65 4.2 ESE 11 17 6 9 1023.1 1023.1 0.0
30/07:00am 24.4 24.9 17.4 65 4.3 E 11 17 6 9 1022.4 1022.4 0.0
30/06:00am 22.0 23.6 17.8 77 2.6 SE 6 9 3 5 1021.7 1021.7 0.0
30/05:30am 23.1 24.1 17.8 72 3.3 E 9 13 5 7 1021.4 1021.4 0.0
30/05:00am 22.7 24.2 18.0 75 2.9 E 7 13 4 7 1021.2 1021.2 0.0
30/04:30am 21.5 23.2 18.5 83 1.9 S 7 9 4 5 1020.8 1020.8 0.0
30/04:00am 23.2 24.3 18.1 73 3.2 E 9 13 5 7 1020.6 1020.6 0.0
30/03:30am 21.8 23.6 18.8 83 1.9 ESE 7 9 4 5 1020.8 1020.8 0.0
30/03:00am 21.0 23.1 18.9 88 1.3 SSE 6 9 3 5 1021.2 1021.2 0.0
30/02:30am 20.8 23.0 18.4 86 1.5 SSW 4 7 2 4 1021.3 1021.3 0.0
30/02:00am 20.5 22.4 19.0 91 0.9 SSW 7 9 4 5 1021.5 1021.5 0.0
30/01:30am 20.5 22.3 18.3 87 1.4 SSW 6 7 3 4 1021.6 1021.6 0.0
30/01:00am 20.4 21.8 18.7 90 1.1 SSW 9 9 5 5 1021.8 1021.8 0.0
30/12:30am 20.7 22.4 18.6 88 1.3 SSW 7 9 4 5 1022.2 1022.2 0.0
30/12:00am 20.8 22.7 18.6 87 1.4 SSW 6 9 3 5 1022.4 1022.4 0.0
 
Date/Time
EST
Temp
°C
App
Temp
°C
Dew
Point
Rel
Hum
%
Delta-T
°C
Wind Press
QNH
hPa
Press
MSL
hPa
Rain
since 9 am
mm
Dir
 
Spd
km/h
Gust
km/h
Spd
kts
Gust
kts
29/11:30pm 20.9 22.3 17.9 83 1.9 SW 7 9 4 5 1022.5 1022.5 0.0
29/11:00pm 21.1 22.8 18.5 85 1.6 S 7 9 4 5 1022.4 1022.4 0.0
29/10:30pm 21.3 23.1 18.7 85 1.6 S 7 9 4 5 1022.3 1022.3 0.0
29/10:00pm 21.1 22.6 18.1 83 1.9 SSW 7 9 4 5 1022.5 1022.5 0.0
29/09:30pm 21.9 23.6 18.5 81 2.1 S 7 7 4 4 1022.6 1022.6 0.0
29/09:00pm 21.7 23.3 18.3 81 2.1 SSW 7 9 4 5 1022.8 1022.8 0.0
29/08:00pm 23.2 24.7 17.6 71 3.5 ESE 6 11 3 6 1022.5 1022.5 0.0
29/07:30pm 23.0 24.3 17.2 70 3.6 E 6 9 3 5 1022.1 1022.1 0.0
29/07:00pm 23.5 24.7 17.3 68 3.8 E 7 9 4 5 1021.9 1021.9 0.0
29/06:30pm 23.8 24.9 17.1 66 4.1 E 7 11 4 6 1021.5 1021.5 0.0
29/06:00pm 24.4 25.1 17.1 63 4.5 E 9 15 5 8 1021.3 1021.3 0.0
29/05:30pm 24.8 24.8 17.3 63 4.7 E 13 19 7 10 1021.1 1021.1 0.0
29/05:00pm 25.2 25.7 16.6 59 5.3 E 9 15 5 8 1021.1 1021.1 0.0
29/04:30pm 25.5 25.3 16.6 58 5.5 ESE 13 20 7 11 1021.1 1021.1 0.0
29/04:00pm 25.9 25.5 16.2 55 5.9 E 13 20 7 11 1021.0 1021.0 0.0
29/03:30pm 26.3 26.3 17.1 57 5.7 ESE 13 19 7 10 1020.9 1020.9 0.0
29/03:00pm 26.3 25.9 16.3 54 6.1 ESE 13 22 7 12 1020.9 1020.9 0.0
29/02:30pm 26.2 24.8 15.6 52 6.4 E 17 22 9 12 1020.9 1020.9 0.0
29/02:00pm 26.3 25.9 17.1 57 5.7 ESE 15 24 8 13 1021.1 1021.1 0.0
29/01:30pm 26.0 25.3 16.3 55 6.0 ESE 15 26 8 14 1021.5 1021.5 0.0
29/01:00pm 26.3 25.3 16.5 54 6.0 ESE 17 24 9 13 1021.6 1021.6 0.0
29/12:30pm 26.2 25.0 16.2 54 6.1 ESE 17 28 9 15 1022.1 1022.1 0.0
29/12:00pm 27.1 27.6 18.4 59 5.5 E 13 24 7 13 1022.4 1022.4 0.0
29/11:30am 25.9 25.6 17.3 59 5.4 SE 15 24 8 13 1022.8 1022.8 0.0
29/11:00am 26.5 26.1 18.1 60 5.3 ESE 17 26 9 14 1023.2 1023.2 0.0
29/10:30am 26.2 25.2 17.6 59 5.4 ESE 19 32 10 17 1023.2 1023.2 0.0
29/10:00am 26.1 25.8 18.2 61 5.0 ESE 17 22 9 12 1023.1 1023.1 0.0
29/09:30am 26.1 26.1 18.2 61 5.0 ESE 15 22 8 12 1023.1 1023.1 0.0
29/09:00am 26.0 25.7 18.2 62 4.9 E 17 24 9 13 1023.0 1023.0 2.2
29/08:30am 25.5 25.0 17.7 62 4.9 ESE 17 28 9 15 1022.8 1022.8 2.2
29/08:00am 25.1 25.5 18.1 65 4.4 ESE 13 19 7 10 1022.6 1022.6 2.2
29/07:30am 24.6 25.9 18.5 69 3.9 ESE 9 13 5 7 1022.1 1022.1 2.2
29/07:00am 24.6 26.0 17.8 66 4.2 ESE 7 11 4 6 1021.7 1021.7 2.2
29/06:30am 23.8 24.8 17.8 69 3.7 E 9 11 5 6 1021.1 1021.1 2.2
29/06:00am 23.9 24.8 17.6 68 3.9 ESE 9 15 5 8 1020.9 1020.9 2.2
29/05:30am 24.1 24.7 17.6 67 4.0 E 11 15 6 8 1020.4 1020.4 2.2
29/05:00am 24.2 24.9 17.9 68 3.9 ESE 11 17 6 9 1020.2 1020.2 2.2
29/04:30am 24.2 25.0 17.2 65 4.3 ESE 9 17 5 9 1019.8 1019.8 2.2
29/04:00am 24.1 24.9 17.4 66 4.2 ESE 9 15 5 8 1019.4 1019.4 2.2
29/03:30am 24.0 24.4 17.3 66 4.2 ESE 11 17 6 9 1019.3 1019.3 2.2
29/03:00am 24.0 24.4 17.3 66 4.1 ESE 11 20 6 11 1019.3 1019.3 2.2
29/02:30am 24.0 24.5 17.5 67 4.0 ESE 11 17 6 9 1019.8 1019.8 2.2
29/02:00am 24.2 24.8 17.7 67 4.0 ESE 11 15 6 8 1020.1 1020.1 2.2
29/01:30am 24.3 24.8 17.5 66 4.2 ESE 11 19 6 10 1020.0 1020.0 2.2
29/01:00am 24.2 25.0 18.2 69 3.8 ESE 11 17 6 9 1019.9 1019.9 2.2
29/12:30am 24.3 24.6 17.8 67 4.1 ESE 13 20 7 11 1020.2 1020.2 2.2
29/12:00am 24.4 25.5 18.1 68 3.9 ESE 9 17 5 9 1020.5 1020.5 2.2
 
Date/Time
EST
Temp
°C
App
Temp
°C
Dew
Point
Rel
Hum
%
Delta-T
°C
Wind Press
QNH
hPa
Press
MSL
hPa
Rain
since 9 am
mm
Dir
 
Spd
km/h
Gust
km/h
Spd
kts
Gust
kts
28/11:30pm 24.5 24.8 18.0 67 4.1 ESE 13 19 7 10 1020.8 1020.8 2.2
28/11:00pm 24.6 25.5 18.3 68 4.0 SE 11 17 6 9 1020.9 1020.9 2.2
28/10:30pm 24.4 25.9 18.8 71 3.6 SE 9 13 5 7 1021.0 1021.0 2.2
28/10:00pm 24.7 25.4 18.9 70 3.7 SE 13 19 7 10 1020.9 1020.9 2.2
28/09:30pm 24.6 25.9 19.2 72 3.5 SE 11 19 6 10 1020.9 1020.9 2.2
28/09:00pm 24.6 25.7 19.7 74 3.1 ESE 13 19 7 10 1020.8 1020.8 2.2
28/08:30pm 24.8 25.9 19.6 73 3.3 ESE 13 19 7 10 1020.6 1020.6 2.2
28/08:00pm 24.8 26.0 19.8 74 3.2 ESE 13 19 7 10 1020.3 1020.3 2.2
28/07:30pm 25.0 26.4 19.6 72 3.5 SE 11 20 6 11 1020.0 1020.0 2.2
28/07:00pm 25.2 27.1 20.5 75 3.1 ESE 11 17 6 9 1019.6 1019.6 2.2
28/06:30pm 24.9 26.4 19.7 73 3.4 SE 11 19 6 10 1019.3 1019.3 2.2
28/06:00pm 24.9 26.4 19.7 73 3.3 SE 11 19 6 10 1019.0 1019.0 2.2
28/05:30pm 25.4 26.6 20.0 72 3.5 ESE 13 20 7 11 1018.9 1018.9 2.2
28/05:00pm 25.6 25.9 19.7 70 3.8 ESE 17 24 9 13 1018.5 1018.5 2.2
28/04:30pm 25.6 25.8 19.3 68 4.0 ESE 17 24 9 13 1018.5 1018.5 2.2
28/04:00pm 25.7 26.1 19.8 70 3.8 ESE 17 28 9 15 1018.3 1018.3 2.2
28/03:30pm 24.9 27.4 21.0 79 2.6 SE 9 20 5 11 1018.3 1018.3 2.2
28/03:00pm 24.6 27.1 22.5 88 1.4 ENE 13 19 7 10 1018.3 1018.3 0.4
28/02:30pm 25.1 27.6 22.4 85 1.8 E 13 20 7 11 1018.5 1018.5 0.2
28/02:00pm 25.4 27.6 21.9 81 2.3 ESE 13 22 7 12 1018.7 1018.7 0.2
28/01:30pm 25.8 27.0 21.5 77 2.9 ESE 17 26 9 14 1018.7 1018.7 0.0
28/01:00pm 26.7 28.4 21.7 74 3.3 ESE 15 22 8 12 1018.8 1018.8 0.0
28/12:30pm 26.0 27.6 22.1 79 2.6 ESE 17 30 9 16 1019.2 1019.2 0.0
28/12:00pm 26.5 27.4 21.5 74 3.3 ESE 19 26 10 14 1019.3 1019.3 0.0
28/11:30am 26.9 27.6 21.2 71 3.8 ESE 19 26 10 14 1019.7 1019.7 0.0
28/11:00am 27.3 28.7 21.8 72 3.7 ESE 17 26 9 14 1020.2 1020.2 0.0
28/10:30am 26.9 28.5 21.4 72 3.7 ESE 15 24 8 13 1020.4 1020.4 0.0
28/10:00am 26.4 27.2 20.7 71 3.7 ESE 17 24 9 13 1020.4 1020.4 0.0
28/09:30am 26.9 28.2 21.6 72 3.5 ESE 17 24 9 13 1020.4 1020.4 0.0
28/09:00am 27.1 28.8 20.9 69 4.1 SE 13 22 7 12 1020.3 1020.3 2.6
28/08:30am 26.7 28.5 21.2 72 3.6 SE 13 19 7 10 1020.0 1020.0 2.6
28/08:00am 26.2 29.7 22.9 82 2.2 S 9 20 5 11 1019.8 1019.8 2.6
28/07:30am 24.3 27.6 22.6 90 1.1 SSW 9 13 5 7 1019.4 1019.4 2.6
28/07:00am 24.0 27.5 22.8 93 0.8 S 9 11 5 6 1019.0 1019.0 2.6
28/06:30am 23.4 26.7 22.6 95 0.5 SSW 9 13 5 7 1018.6 1018.6 2.6
28/06:00am 23.3 27.0 22.6 96 0.5 SSW 7 11 4 6 1018.4 1018.4 2.6
28/05:30am 23.3 27.2 22.6 96 0.5 SSW 6 11 3 6 1018.1 1018.1 2.6
28/05:00am 23.4 27.4 22.7 96 0.5 SSW 6 11 3 6 1017.9 1017.9 2.6
28/04:30am 23.4 26.9 22.9 97 0.3 SSW 9 13 5 7 1017.4 1017.4 2.6
28/04:00am 23.4 26.8 22.7 96 0.5 SSW 9 11 5 6 1017.0 1017.0 2.6
28/03:30am 23.4 26.8 22.7 96 0.5 SSW 9 13 5 7 1017.0 1017.0 2.6
28/03:00am 23.5 27.0 22.8 96 0.5 SSW 9 13 5 7 1017.0 1017.0 2.6
28/02:30am 23.9 27.8 23.0 95 0.6 S 7 11 4 6 1017.2 1017.2 2.6
28/02:00am 23.9 27.8 23.0 95 0.6 SSW 7 11 4 6 1017.4 1017.4 2.6
28/01:30am 24.2 28.4 23.2 94 0.7 SSW 6 9 3 5 1017.5 1017.5 2.6
28/01:00am 24.2 29.2 23.2 94 0.7 S 2 7 1 4 1017.6 1017.6 2.6
28/12:30am 24.4 28.6 23.4 94 0.7 SSW 7 9 4 5 1017.6 1017.6 2.6
28/12:00am 24.7 29.5 23.5 93 0.8 SSW 4 7 2 4 1017.8 1017.8 2.6
 
Date/Time
EST
Temp
°C
App
Temp
°C
Dew
Point
Rel
Hum
%
Delta-T
°C
Wind Press
QNH
hPa
Press
MSL
hPa
Rain
since 9 am
mm
Dir
 
Spd
km/h
Gust
km/h
Spd
kts
Gust
kts
27/11:30pm 24.8 28.9 23.0 90 1.2 SSE 6 7 3 4 1018.2 1018.2 2.6
27/11:00pm 25.0 29.1 23.2 90 1.2 SSE 7 11 4 6 1018.3 1018.3 2.6
27/10:30pm 25.1 29.6 23.9 93 0.8 SSE 7 9 4 5 1018.5 1018.5 2.6
27/10:00pm 25.2 30.0 24.5 96 0.5 S 7 11 4 6 1018.5 1018.5 2.6
27/09:30pm 25.0 29.8 24.1 95 0.6 SSE 6 9 3 5 1018.7 1018.7 2.6
27/09:00pm 24.9 29.4 23.9 94 0.7 SE 7 13 4 7 1018.6 1018.6 2.6
27/08:30pm 25.0 29.5 24.0 94 0.7 SE 7 13 4 7 1018.7 1018.7 2.6
27/08:00pm 25.0 29.8 24.1 95 0.6 ESE 6 9 3 5 1018.5 1018.5 2.6
27/07:30pm 24.9 28.4 23.5 92 1.0 ESE 11 17 6 9 1018.1 1018.1 2.6
27/07:00pm 26.6 30.5 22.9 80 2.5 ESE 7 11 4 6 1017.8 1017.8 0.0
27/06:30pm 26.4 30.6 23.1 82 2.2 ENE 6 50 3 27 1017.4 1017.4 0.0
27/06:00pm 26.6 30.2 23.1 81 2.4 E 9 13 5 7 1016.6 1016.6 0.0
27/05:30pm 26.8 30.8 23.1 80 2.5 ENE 7 9 4 5 1016.6 1016.6 0.0
27/05:00pm 27.3 31.1 23.5 80 2.6 NE 9 15 5 8 1016.1 1016.1 0.0
27/04:30pm 27.3 30.4 22.9 77 3.0 NE 11 15 6 8 1015.8 1015.8 0.0
27/04:00pm 27.5 30.9 23.3 78 2.9 NE 11 19 6 10 1015.5 1015.5 0.0
27/03:30pm 28.0 30.9 23.8 78 2.9 NNE 15 22 8 12 1015.3 1015.3 0.0
27/03:00pm 28.3 31.0 23.4 75 3.4 NNE 15 22 8 12 1015.4 1015.4 0.0
27/02:30pm 28.1 31.0 23.2 74 3.3 NE 13 20 7 11 1015.5 1015.5 0.0
27/02:00pm 27.9 31.0 23.5 77 3.0 NE 13 20 7 11 1015.7 1015.7 0.0
27/01:30pm 28.8 31.6 23.0 71 4.0 NE 13 20 7 11 1015.9 1015.9 0.0
27/01:00pm 30.4 33.7 21.8 60 5.8 S 7 13 4 7 1016.2 1016.2 0.0
27/12:30pm 30.4 33.8 22.0 60 5.7 NW 7 19 4 10 1016.7 1016.7 0.0
27/12:00pm 29.8 34.3 22.3 64 5.1 NW 2 9 1 5 1017.3 1017.3 0.0
27/11:30am 28.7 32.1 22.0 67 4.5 NNW 7 11 4 6 1017.9 1017.9 0.0
27/11:00am 28.8 32.7 22.5 68 4.3 WSW 6 13 3 7 1018.4 1018.4 0.0
27/10:30am 27.6 31.4 22.8 75 3.3 NW 7 11 4 6 1018.8 1018.8 0.0
27/10:00am 27.1 31.1 23.1 79 2.7 WNW 7 11 4 6 1019.0 1019.0 0.0

Other Formats:

Comma delimited format used in spreadsheet applications
http://www.bom.gov.au/fwo/IDQ60801/IDQ60801.94570.axf

JavaScript Object Notation format (JSON) in row-major order
http://www.bom.gov.au/fwo/IDQ60801/IDQ60801.94570.json